Time;durP1;ratioP1;P1;durP2;ratioP2;P2;SDS_P1;SDS_P2;PMS_P1;PMS_P2;Temp;Humidity;BMP_temperature;BMP_pressure;BME280_temperature;BME280_humidity;BME280_pressure;Samples;Min_cycle;Max_cycle;Signal;HPM_P1;HPM_P2
2021/08/21 20:06:26;;;;;;;9.35;5.90;;;;;;;15.91;82.29;96543.13;6097681;23;20031;-96
2021/08/21 20:08:51;;;;;;;10.80;6.30;;;;;;;15.43;82.10;96469.13;6073840;23;20019;-95
2021/08/21 20:11:17;;;;;;;8.05;6.45;;;;;;;15.44;82.69;96485.06;6073988;23;20457;-96
2021/08/21 20:13:42;;;;;;;11.40;6.78;;;;;;;15.68;82.71;96525.06;6073853;23;20024;-96
2021/08/21 20:16:08;;;;;;;8.60;6.03;;;;;;;15.89;82.90;96544.88;6073536;23;20086;-96
2021/08/21 20:18:35;;;;;;;8.55;6.28;;;;;;;15.73;82.92;96516.16;6073736;23;20010;-95
2021/08/21 20:21:01;;;;;;;8.55;6.88;;;;;;;15.52;82.84;96501.03;6073504;23;20420;-96
2021/08/21 20:23:27;;;;;;;7.75;6.40;;;;;;;15.17;83.09;96463.72;6073734;23;20085;-96
2021/08/21 20:25:52;;;;;;;7.35;5.97;;;;;;;15.31;82.55;96481.22;6073763;23;20440;-96
2021/08/21 20:28:19;;;;;;;8.75;6.10;;;;;;;15.54;83.12;96512.25;6074060;23;20018;-96
2021/08/21 20:30:47;;;;;;;7.45;6.43;;;;;;;15.30;83.51;96502.38;6073917;23;20018;-95
2021/08/21 20:33:13;;;;;;;8.27;5.88;;;;;;;15.17;83.41;96494.53;6074192;23;20458;-96
2021/08/21 20:35:38;;;;;;;7.05;5.80;;;;;;;15.61;83.77;96561.84;6074027;23;20006;-96
2021/08/21 20:38:04;;;;;;;10.27;6.63;;;;;;;15.28;83.40;96523.97;6073703;23;20432;-96
2021/08/21 20:40:29;;;;;;;9.18;6.20;;;;;;;15.08;84.46;96507.66;6073660;23;20387;-96
2021/08/21 20:42:55;;;;;;;9.85;6.45;;;;;;;15.18;84.30;96515.22;6073297;23;20061;-96
2021/08/21 20:45:21;;;;;;;7.55;6.35;;;;;;;14.89;84.59;96482.63;6073429;23;20035;-96
2021/08/21 20:47:46;;;;;;;8.60;5.75;;;;;;;14.92;84.13;96487.88;6073417;23;20089;-96
2021/08/21 20:50:12;;;;;;;8.57;6.05;;;;;;;15.13;84.28;96531.59;6073489;23;20002;-96
2021/08/21 20:52:38;;;;;;;6.70;5.88;;;;;;;15.10;84.89;96530.53;6073865;23;20044;-95
2021/08/21 20:55:04;;;;;;;8.82;6.32;;;;;;;15.03;84.17;96517.31;6073513;23;20081;-96
2021/08/21 20:57:29;;;;;;;7.57;6.22;;;;;;;15.06;84.92;96526.53;6073179;23;20395;-96
2021/08/21 20:59:55;;;;;;;10.13;6.20;;;;;;;14.94;85.09;96526.41;6073440;23;20030;-96
2021/08/21 21:02:20;;;;;;;8.30;6.18;;;;;;;14.96;85.44;96542.34;6073235;23;20010;-96
2021/08/21 21:04:46;;;;;;;6.30;5.70;;;;;;;14.62;85.34;96489.31;6073079;23;20085;-96
2021/08/21 21:07:12;;;;;;;8.30;6.65;;;;;;;14.51;85.16;96473.53;6072856;23;20038;-96
2021/08/21 21:09:37;;;;;;;9.80;6.22;;;;;;;14.70;85.81;96511.50;6073187;23;20002;-96
2021/08/21 21:12:03;;;;;;;9.95;6.63;;;;;;;15.07;85.73;96564.31;6073389;23;20016;-96
2021/08/21 21:14:29;;;;;;;10.23;6.15;;;;;;;15.00;86.04;96572.97;6073065;23;20010;-96
2021/08/21 21:16:55;;;;;;;7.80;6.07;;;;;;;15.05;85.42;96579.72;6073157;23;20014;-96
2021/08/21 21:19:21;;;;;;;7.25;6.53;;;;;;;14.98;86.47;96567.22;6072960;23;20006;-96
2021/08/21 21:21:46;;;;;;;9.95;6.95;;;;;;;14.57;86.01;96511.88;6073045;23;20006;-96
2021/08/21 21:24:12;;;;;;;8.60;6.28;;;;;;;14.37;85.56;96496.19;6073004;23;20060;-96
2021/08/21 21:26:41;;;;;;;8.63;6.35;;;;;;;14.76;86.13;96553.31;6073101;23;20013;-96
2021/08/21 21:29:07;;;;;;;7.20;6.30;;;;;;;14.24;85.79;96477.44;6073005;23;20081;-96
2021/08/21 21:31:33;;;;;;;8.02;6.43;;;;;;;14.46;85.84;96526.13;6072883;23;20384;-96
2021/08/21 21:33:59;;;;;;;6.97;6.28;;;;;;;14.78;86.79;96575.47;6073214;23;20063;-96
2021/08/21 21:36:25;;;;;;;12.00;6.85;;;;;;;14.35;85.54;96509.59;6097341;23;20017;-96
2021/08/21 21:38:50;;;;;;;8.95;6.82;;;;;;;14.34;86.19;96524.50;6073212;23;20084;-96
2021/08/21 21:41:16;;;;;;;8.15;6.53;;;;;;;14.60;86.46;96566.31;6073062;23;20002;-96
2021/08/21 21:43:42;;;;;;;7.55;6.43;;;;;;;14.36;86.47;96539.16;6072911;23;20006;-96
2021/08/21 21:46:08;;;;;;;8.95;6.75;;;;;;;14.25;86.56;96530.84;6073511;23;20321;-96
2021/08/21 21:51:55;;;;;;;7.97;6.82;;;;;;;14.35;87.29;96545.13;6100974;23;20053;-96
2021/08/21 21:54:21;;;;;;;7.97;6.55;;;;;;;14.52;87.38;96562.47;6074104;23;20368;-96
2021/08/21 21:56:46;;;;;;;8.93;6.32;;;;;;;14.09;86.55;96510.28;6073265;23;20006;-96
2021/08/21 21:59:12;;;;;;;8.80;6.50;;;;;;;14.54;86.70;96572.94;6073094;23;20007;-96
2021/08/21 22:01:37;;;;;;;7.82;6.45;;;;;;;13.90;86.61;96487.16;6096835;23;20013;-96
2021/08/21 22:04:03;;;;;;;9.18;6.50;;;;;;;14.13;86.86;96532.69;6072842;23;20015;-96
2021/08/21 22:06:29;;;;;;;7.55;6.75;;;;;;;14.18;86.61;96544.91;6067842;23;20393;-96
2021/08/21 22:08:55;;;;;;;8.68;6.70;;;;;;;14.41;87.37;96574.00;6068150;23;20507;-96
2021/08/21 22:11:20;;;;;;;9.60;7.05;;;;;;;14.16;87.44;96545.38;6068479;23;20006;-96
2021/08/21 22:13:46;;;;;;;10.15;6.50;;;;;;;13.80;87.30;96499.47;6068339;23;20333;-96
2021/08/21 22:16:12;;;;;;;7.53;6.70;;;;;;;14.10;86.98;96552.72;6068509;23;20007;-96
2021/08/21 22:18:38;;;;;;;8.40;6.93;;;;;;;14.24;87.88;96564.09;6069008;23;20007;-96
2021/08/21 22:21:05;;;;;;;9.13;6.45;;;;;;;14.21;87.91;96565.78;6068364;23;20015;-96
2021/08/21 22:23:31;;;;;;;7.60;6.82;;;;;;;13.87;87.64;96518.91;6069662;23;20463;-96
2021/08/21 22:25:58;;;;;;;12.32;7.03;;;;;;;13.93;88.02;96551.00;6068340;23;20007;-96
2021/08/21 22:28:25;;;;;;;9.80;7.00;;;;;;;14.18;87.65;96582.41;6069185;23;20011;-96
2021/08/21 22:30:51;;;;;;;8.35;7.00;;;;;;;14.11;87.67;96586.25;6070859;23;20011;-96
2021/08/21 22:33:16;;;;;;;7.28;6.57;;;;;;;13.42;88.13;96484.75;6069480;23;20077;-96
2021/08/21 22:35:46;;;;;;;7.75;6.95;;;;;;;13.48;88.04;96504.72;6071876;23;20456;-96
2021/08/21 22:45:04;;;;;;;9.45;6.97;;;;;;;13.71;88.54;96552.19;6072326;23;20018;-96
2021/08/21 22:47:39;;;;;;;11.35;7.13;;;;;;;13.95;88.62;96581.31;6071590;23;20095;-96
2021/08/21 22:50:05;;;;;;;7.93;7.07;;;;;;;13.80;88.83;96552.06;6071162;23;20139;-96
2021/08/21 22:52:31;;;;;;;7.57;6.88;;;;;;;13.62;88.78;96546.81;6071336;23;20007;-96
2021/08/21 22:54:56;;;;;;;8.57;6.47;;;;;;;13.49;88.83;96503.47;6069922;23;20009;-96
2021/08/21 22:57:22;;;;;;;9.77;7.18;;;;;;;13.60;88.71;96536.41;6069944;23;20017;-96
2021/08/21 22:59:47;;;;;;;9.13;6.78;;;;;;;13.35;89.21;96505.00;6070597;23;20018;-96
2021/08/21 23:02:13;;;;;;;7.97;7.18;;;;;;;13.72;89.16;96540.03;6072509;23;20015;-96
2021/08/21 23:04:39;;;;;;;8.00;7.20;;;;;;;13.68;89.01;96542.19;6073716;23;20011;-96
2021/08/21 23:07:05;;;;;;;9.75;7.35;;;;;;;13.77;89.94;96566.66;6084869;23;20444;-96
2021/08/21 23:09:31;;;;;;;9.68;7.60;;;;;;;13.04;89.52;96461.84;6075635;23;20010;-95
2021/08/21 23:11:58;;;;;;;9.93;7.35;;;;;;;13.80;89.14;96571.19;6074817;23;20010;-96
2021/08/21 23:14:23;;;;;;;9.52;7.43;;;;;;;13.58;89.20;96540.81;6074743;23;20010;-96
2021/08/21 23:16:49;;;;;;;10.93;7.93;;;;;;;13.36;89.49;96509.22;6074271;23;20420;-96
2021/08/21 23:19:15;;;;;;;8.73;7.03;;;;;;;13.38;89.31;96502.56;6074319;23;20061;-96
2021/08/21 23:21:41;;;;;;;8.48;6.88;;;;;;;13.46;90.34;96522.75;6074214;23;20094;-96
2021/08/21 23:24:10;;;;;;;10.48;7.13;;;;;;;13.22;90.24;96487.44;6074010;23;20029;-96
2021/08/21 23:26:36;;;;;;;8.38;7.53;;;;;;;13.49;89.35;96522.59;6074292;23;20086;-96
2021/08/21 23:29:03;;;;;;;9.73;7.25;;;;;;;13.70;89.73;96564.34;6074346;23;20050;-96
2021/08/21 23:31:30;;;;;;;9.52;7.20;;;;;;;13.32;89.38;96503.22;6074984;23;20013;-96
2021/08/21 23:33:56;;;;;;;9.57;7.43;;;;;;;13.06;89.56;96475.75;6074342;23;20447;-96
2021/08/21 23:36:22;;;;;;;9.85;7.22;;;;;;;13.47;89.43;96530.47;6074447;23;20042;-96
2021/08/21 23:38:49;;;;;;;8.00;7.20;;;;;;;13.07;89.05;96471.06;6075423;23;20006;-96
2021/08/21 23:41:15;;;;;;;7.88;7.07;;;;;;;13.69;89.53;96554.66;6074441;23;20034;-96
2021/08/21 23:43:41;;;;;;;10.48;7.90;;;;;;;13.20;89.62;96504.22;6075358;23;20336;-96
2021/08/21 23:46:09;;;;;;;10.57;6.90;;;;;;;13.56;89.72;96554.19;6075283;23;20068;-96
2021/08/21 23:48:35;;;;;;;9.88;6.60;;;;;;;13.47;89.56;96546.09;6076188;23;20026;-96
2021/08/21 23:51:02;;;;;;;7.72;7.00;;;;;;;12.62;89.03;96431.38;6077203;23;20091;-96
2021/08/21 23:53:28;;;;;;;8.50;7.60;;;;;;;12.90;90.02;96478.97;6075184;23;20066;-96
2021/08/21 23:55:54;;;;;;;11.48;7.53;;;;;;;13.02;89.36;96497.00;6074451;23;20089;-96
2021/08/21 23:58:20;;;;;;;7.72;7.00;;;;;;;13.28;89.39;96526.47;6073386;23;20030;-96
